createdAt,value
2024-01-21T00:01:41.906Z,13.10
2024-01-21T00:04:43.660Z,13.10
2024-01-21T00:07:45.876Z,13.07
2024-01-21T00:10:47.569Z,10.68
2024-01-21T00:13:49.318Z,10.27
2024-01-21T00:16:51.058Z,12.35
2024-01-21T00:19:52.814Z,11.95
2024-01-21T00:22:54.576Z,15.02
2024-01-21T00:25:56.386Z,15.02
2024-01-21T00:29:01.763Z,12.93
2024-01-21T00:32:03.762Z,17.95
2024-01-21T00:35:05.936Z,15.85
2024-01-21T00:38:07.629Z,15.30
2024-01-21T00:41:13.590Z,13.63
2024-01-21T00:44:15.277Z,16.40
2024-01-21T00:47:17.008Z,11.45
2024-01-21T00:50:18.842Z,14.70
2024-01-21T00:53:20.557Z,12.80
2024-01-21T00:56:22.267Z,18.95
2024-01-21T00:59:24.069Z,15.63
2024-01-21T01:02:25.745Z,14.27
2024-01-21T01:05:27.531Z,14.95
2024-01-21T01:08:29.225Z,11.98
2024-01-21T01:11:31.876Z,12.93
2024-01-21T01:14:33.616Z,12.50
2024-01-21T01:17:35.591Z,14.15
2024-01-21T01:20:37.226Z,14.02
2024-01-21T01:23:38.970Z,12.00
2024-01-21T01:26:40.702Z,13.43
2024-01-21T01:29:42.379Z,14.00
2024-01-21T01:32:44.072Z,13.90
2024-01-21T01:35:45.887Z,14.23
2024-01-21T01:38:47.643Z,12.63
2024-01-21T01:41:49.350Z,14.30
2024-01-21T01:44:51.064Z,13.35
2024-01-21T01:47:53.306Z,12.45
2024-01-21T01:50:58.005Z,12.98
2024-01-21T01:54:00.032Z,14.68
2024-01-21T01:57:04.784Z,12.68
2024-01-21T02:00:10.416Z,11.45
2024-01-21T02:03:15.977Z,12.30
2024-01-21T02:06:17.766Z,14.38
2024-01-21T02:09:19.929Z,17.50
2024-01-21T02:12:21.800Z,14.10
2024-01-21T02:15:24.061Z,14.15
2024-01-21T02:18:26.167Z,13.43
2024-01-21T02:21:27.941Z,12.80
2024-01-21T02:24:31.430Z,16.95
2024-01-21T02:27:33.552Z,14.05
2024-01-21T02:30:41.958Z,13.25
2024-01-21T02:33:43.717Z,11.88
2024-01-21T02:36:45.462Z,14.20
2024-01-21T02:39:47.336Z,13.88
2024-01-21T02:42:49.072Z,13.23
2024-01-21T02:45:50.870Z,14.73
2024-01-21T02:48:52.688Z,16.38
2024-01-21T02:51:54.438Z,11.82
2024-01-21T02:54:56.286Z,14.20
2024-01-21T02:57:58.052Z,14.50
2024-01-21T03:00:59.814Z,15.30
2024-01-21T03:04:01.792Z,13.70
2024-01-21T03:07:03.633Z,13.98
2024-01-21T03:10:06.748Z,14.25
2024-01-21T03:13:08.583Z,14.20
2024-01-21T03:16:12.196Z,15.13
2024-01-21T03:19:13.896Z,10.77
2024-01-21T03:22:15.603Z,15.43
2024-01-21T03:25:17.774Z,14.25
2024-01-21T03:28:19.550Z,15.63
2024-01-21T03:31:21.231Z,15.38
2024-01-21T03:34:22.984Z,13.50
2024-01-21T03:37:24.823Z,14.40
2024-01-21T03:40:26.486Z,12.93
2024-01-21T03:43:28.172Z,18.95
2024-01-21T03:46:29.841Z,15.60
2024-01-21T03:49:31.863Z,14.93
2024-01-21T03:52:33.678Z,13.95
2024-01-21T03:55:35.386Z,14.57
2024-01-21T03:58:37.075Z,17.75
2024-01-21T04:01:45.627Z,17.67
2024-01-21T04:04:47.404Z,20.23
2024-01-21T04:07:49.169Z,16.30
2024-01-21T04:10:51.916Z,18.42
2024-01-21T04:13:53.624Z,16.42
2024-01-21T04:16:55.296Z,17.88
2024-01-21T04:19:56.946Z,21.63
2024-01-21T04:22:58.616Z,18.55
2024-01-21T04:26:01.213Z,17.00
2024-01-21T04:29:03.058Z,18.02
2024-01-21T04:32:04.947Z,18.98
2024-01-21T04:35:07.198Z,21.85
2024-01-21T04:38:08.968Z,16.77
2024-01-21T04:41:10.703Z,19.73
2024-01-21T04:44:12.451Z,16.27
2024-01-21T04:47:14.149Z,19.20
2024-01-21T04:50:15.926Z,18.95
2024-01-21T04:53:17.660Z,17.52
2024-01-21T04:56:19.875Z,18.55
2024-01-21T04:59:21.569Z,19.38
2024-01-21T05:02:23.238Z,20.45
2024-01-21T05:05:24.937Z,17.20
2024-01-21T05:08:26.622Z,17.13
2024-01-21T05:11:28.436Z,17.08
2024-01-21T05:14:30.094Z,20.20
2024-01-21T05:17:31.817Z,22.20
2024-01-21T05:20:33.595Z,19.02
2024-01-21T05:23:35.241Z,19.63
2024-01-21T05:26:44.435Z,21.33
2024-01-21T05:29:46.208Z,21.30
2024-01-21T05:32:51.362Z,19.05
2024-01-21T05:35:53.187Z,21.42
2024-01-21T05:38:55.208Z,15.60
2024-01-21T05:42:04.236Z,19.55
2024-01-21T05:45:06.419Z,17.58
2024-01-21T05:48:08.713Z,15.88
2024-01-21T05:51:11.265Z,17.33
2024-01-21T05:54:12.979Z,17.75
2024-01-21T05:57:14.787Z,17.15
2024-01-21T06:00:17.082Z,15.52
2024-01-21T06:03:18.904Z,15.60
2024-01-21T06:06:20.805Z,16.10
2024-01-21T06:09:22.527Z,18.23
2024-01-21T06:12:24.236Z,15.90
2024-01-21T06:15:25.944Z,16.95
2024-01-21T06:18:27.813Z,17.73
2024-01-21T06:21:29.584Z,15.20
2024-01-21T06:24:31.354Z,12.82
2024-01-21T06:27:33.085Z,14.40
2024-01-21T06:30:34.905Z,14.10
2024-01-21T06:33:36.740Z,15.02
2024-01-21T06:36:38.687Z,13.80
2024-01-21T06:39:40.411Z,15.27
2024-01-21T06:42:42.201Z,18.83
2024-01-21T06:45:43.926Z,16.35
2024-01-21T06:48:45.680Z,14.50
2024-01-21T06:51:55.701Z,14.63
2024-01-21T06:54:57.740Z,15.68
2024-01-21T06:57:59.518Z,11.75
2024-01-21T07:01:02.094Z,11.50
2024-01-21T07:04:04.089Z,15.00
2024-01-21T07:07:06.225Z,10.27
2024-01-21T07:10:08.543Z,12.00
2024-01-21T07:13:11.050Z,12.90
2024-01-21T07:16:12.909Z,13.68
2024-01-21T07:19:14.901Z,58.38
2024-01-21T07:22:16.644Z,21.67
2024-01-21T07:25:18.387Z,19.73
2024-01-21T07:28:20.279Z,19.10
2024-01-21T07:31:22.000Z,12.38
2024-01-21T07:34:24.081Z,14.55
2024-01-21T07:37:25.914Z,12.82
2024-01-21T07:40:28.284Z,13.65
2024-01-21T07:43:31.269Z,15.07
2024-01-21T07:46:33.007Z,11.00
2024-01-21T07:49:34.780Z,16.95
2024-01-21T07:52:36.564Z,13.18
2024-01-21T07:55:38.486Z,10.30
2024-01-21T07:58:40.234Z,9.77
2024-01-21T08:01:42.376Z,8.73
2024-01-21T08:04:44.228Z,11.02
2024-01-21T08:07:46.453Z,9.73
2024-01-21T08:10:48.178Z,11.52
2024-01-21T08:13:49.845Z,11.02
2024-01-21T08:16:51.594Z,9.52
2024-01-21T08:19:53.595Z,9.32
2024-01-21T08:22:55.580Z,11.32
2024-01-21T08:25:57.329Z,9.07
2024-01-21T08:28:59.394Z,9.35
2024-01-21T08:32:02.210Z,12.38
2024-01-21T08:35:04.242Z,10.45
2024-01-21T08:38:05.994Z,10.93
2024-01-21T08:41:07.895Z,9.10
2024-01-21T08:44:10.026Z,7.97
2024-01-21T08:47:12.661Z,9.13
2024-01-21T08:50:14.407Z,9.13
2024-01-21T08:53:16.158Z,9.93
2024-01-21T08:56:17.798Z,9.23
2024-01-21T08:59:19.492Z,10.43
2024-01-21T09:02:21.155Z,8.02
2024-01-21T09:05:23.130Z,7.88
2024-01-21T09:08:24.915Z,7.35
2024-01-21T09:11:26.975Z,9.18
2024-01-21T09:14:28.787Z,7.20
2024-01-21T09:17:30.620Z,7.93
2024-01-21T09:20:32.399Z,7.47
2024-01-21T09:23:34.268Z,6.72
2024-01-21T09:26:36.087Z,6.75
2024-01-21T09:29:37.822Z,6.07
2024-01-21T09:32:39.605Z,5.75
2024-01-21T09:35:41.624Z,6.63
2024-01-21T09:38:43.671Z,6.00
2024-01-21T09:41:52.091Z,6.32
2024-01-21T09:44:53.854Z,5.25
2024-01-21T09:47:55.993Z,5.28
2024-01-21T09:50:59.991Z,7.95
2024-01-21T09:54:05.908Z,6.57
2024-01-21T09:57:09.862Z,6.70
2024-01-21T10:00:14.936Z,6.45
2024-01-21T10:03:17.061Z,6.40
2024-01-21T10:06:19.089Z,5.65
2024-01-21T10:09:24.885Z,6.68
2024-01-21T10:12:26.971Z,6.18
2024-01-21T10:15:31.267Z,6.93
2024-01-21T10:18:33.744Z,5.95
2024-01-21T10:21:35.597Z,5.22
2024-01-21T10:24:57.841Z,6.30
2024-01-21T10:27:59.595Z,6.43
2024-01-21T10:31:01.722Z,5.03
2024-01-21T10:34:04.325Z,5.55
2024-01-21T10:37:06.344Z,6.90
2024-01-21T10:40:10.565Z,5.28
2024-01-21T10:43:15.950Z,5.13
2024-01-21T10:46:19.571Z,5.80
2024-01-21T10:49:21.842Z,4.70
2024-01-21T10:52:24.610Z,5.40
2024-01-21T10:55:27.099Z,4.78
2024-01-21T10:58:29.650Z,3.95
2024-01-21T11:01:32.523Z,7.43
2024-01-21T11:04:35.939Z,4.90
2024-01-21T11:07:39.131Z,6.35
2024-01-21T11:10:40.839Z,5.05
2024-01-21T11:13:46.964Z,5.43
2024-01-21T11:16:48.756Z,5.18
2024-01-21T11:19:50.694Z,5.68
2024-01-21T11:22:52.636Z,6.68
2024-01-21T11:25:55.072Z,6.57
2024-01-21T11:29:01.816Z,8.00
2024-01-21T11:35:10.916Z,10.15
2024-01-21T11:41:15.673Z,9.32
2024-01-21T11:44:30.211Z,6.60
2024-01-21T11:47:33.507Z,7.32
2024-01-21T11:50:36.220Z,8.93
2024-01-21T11:53:37.887Z,6.25
2024-01-21T11:56:45.389Z,27.50
2024-01-21T11:59:48.126Z,6.90
2024-01-21T12:02:49.783Z,7.68
2024-01-21T12:05:51.673Z,6.60
2024-01-21T12:08:56.984Z,5.38
2024-01-21T12:12:00.403Z,6.68
2024-01-21T12:15:03.655Z,7.40
2024-01-21T12:18:06.069Z,10.18
2024-01-21T12:21:08.123Z,6.15
2024-01-21T12:24:10.126Z,6.18
2024-01-21T12:27:15.348Z,5.75
2024-01-21T12:30:17.888Z,5.72
2024-01-21T12:33:19.804Z,4.82
2024-01-21T12:36:21.670Z,6.43
2024-01-21T12:39:24.758Z,5.93
2024-01-21T12:42:28.299Z,5.85
2024-01-21T12:45:30.004Z,8.50
2024-01-21T12:48:31.876Z,7.72
2024-01-21T12:51:33.743Z,5.82
2024-01-21T12:54:36.118Z,5.75
2024-01-21T12:57:38.052Z,5.07
2024-01-21T13:00:43.124Z,4.80
2024-01-21T13:03:45.166Z,5.03
2024-01-21T13:06:47.530Z,7.90
2024-01-21T13:09:50.057Z,8.02
2024-01-21T13:12:52.014Z,6.75
2024-01-21T13:15:53.737Z,5.97
2024-01-21T13:18:55.485Z,8.85
2024-01-21T13:21:57.359Z,6.15
2024-01-21T13:24:59.826Z,11.45
2024-01-21T13:28:15.129Z,6.75
2024-01-21T13:31:16.906Z,8.73
2024-01-21T13:34:18.645Z,7.40
2024-01-21T13:37:26.728Z,7.63
2024-01-21T13:40:29.450Z,8.85
2024-01-21T13:43:32.112Z,8.13
2024-01-21T13:46:34.801Z,7.25
2024-01-21T13:49:37.101Z,10.18
2024-01-21T13:52:39.342Z,7.45
2024-01-21T13:55:41.164Z,10.50
2024-01-21T13:58:42.848Z,9.40
2024-01-21T14:01:53.862Z,7.90
2024-01-21T14:04:59.520Z,6.55
2024-01-21T14:08:01.221Z,7.03
2024-01-21T14:11:03.111Z,8.57
2024-01-21T14:14:04.999Z,9.45
2024-01-21T14:17:06.892Z,8.18
2024-01-21T14:20:12.024Z,8.65
2024-01-21T14:23:13.959Z,9.43
2024-01-21T14:26:16.707Z,8.52
2024-01-21T14:29:26.268Z,5.72
2024-01-21T14:32:28.165Z,6.50
2024-01-21T14:35:31.112Z,5.25
2024-01-21T14:38:32.836Z,10.65
2024-01-21T14:41:34.910Z,12.93
2024-01-21T14:44:36.654Z,27.83
2024-01-21T14:47:38.620Z,6.20
2024-01-21T14:50:40.526Z,4.50
2024-01-21T14:53:42.374Z,6.03
2024-01-21T14:56:44.183Z,6.25
2024-01-21T14:59:45.989Z,5.22
2024-01-21T15:02:47.836Z,5.05
2024-01-21T15:05:49.607Z,5.32
2024-01-21T15:08:51.306Z,6.03
2024-01-21T15:11:53.086Z,4.75
2024-01-21T15:15:04.698Z,6.10
2024-01-21T15:18:12.402Z,6.25
2024-01-21T15:21:19.424Z,10.23
2024-01-21T15:24:21.266Z,7.75
2024-01-21T15:27:24.440Z,7.28
2024-01-21T15:30:26.385Z,5.82
2024-01-21T15:33:32.456Z,6.38
2024-01-21T15:36:36.396Z,7.65
2024-01-21T15:39:38.137Z,6.15
2024-01-21T15:42:41.352Z,5.45
2024-01-21T15:45:43.250Z,6.03
2024-01-21T15:48:45.167Z,4.28
2024-01-21T15:51:49.064Z,4.35
2024-01-21T15:54:52.389Z,7.50
2024-01-21T15:57:54.230Z,6.13
2024-01-21T16:00:56.126Z,8.23
2024-01-21T16:03:58.720Z,5.32
2024-01-21T16:07:00.622Z,6.32
2024-01-21T16:10:02.540Z,8.68
2024-01-21T16:13:04.952Z,7.10
2024-01-21T16:16:07.092Z,8.10
2024-01-21T16:19:09.048Z,6.63
2024-01-21T16:22:11.331Z,6.90
2024-01-21T16:25:13.276Z,8.10
2024-01-21T16:28:15.254Z,9.30
2024-01-21T16:31:17.793Z,7.65
2024-01-21T16:34:19.634Z,8.00
2024-01-21T16:37:21.414Z,12.43
2024-01-21T16:40:23.466Z,8.73
2024-01-21T16:43:25.383Z,9.13
2024-01-21T16:46:27.166Z,9.23
2024-01-21T16:49:28.954Z,6.97
2024-01-21T16:52:33.954Z,10.05
2024-01-21T16:55:35.736Z,5.57
2024-01-21T16:58:37.871Z,6.85
2024-01-21T17:01:45.525Z,7.40
2024-01-21T17:04:47.973Z,7.55
2024-01-21T17:07:49.889Z,6.68
2024-01-21T17:10:57.599Z,6.20
2024-01-21T17:13:59.334Z,5.10
2024-01-21T17:17:01.677Z,5.35
2024-01-21T17:20:06.118Z,5.85
2024-01-21T17:23:08.994Z,5.45
2024-01-21T17:26:13.200Z,5.75
2024-01-21T17:29:14.958Z,7.05
2024-01-21T17:32:16.658Z,7.63
2024-01-21T17:35:18.514Z,9.10
2024-01-21T17:38:20.193Z,12.23
2024-01-21T17:41:23.287Z,11.77
2024-01-21T17:44:24.988Z,10.95
2024-01-21T17:47:26.977Z,10.05
2024-01-21T17:50:28.884Z,12.70
2024-01-21T17:53:30.622Z,11.88
2024-01-21T17:56:32.688Z,12.15
2024-01-21T17:59:34.601Z,13.18
2024-01-21T18:02:36.452Z,11.75
2024-01-21T18:05:38.384Z,11.50
2024-01-21T18:08:40.247Z,15.32
2024-01-21T18:11:42.098Z,11.25
2024-01-21T18:14:43.812Z,12.55
2024-01-21T18:17:46.124Z,12.00
2024-01-21T18:20:48.280Z,19.48
2024-01-21T18:23:50.764Z,22.55
2024-01-21T18:26:52.618Z,20.00
2024-01-21T18:29:54.532Z,15.75
2024-01-21T18:32:56.461Z,12.95
2024-01-21T18:35:58.246Z,9.32
2024-01-21T18:39:00.046Z,7.97
2024-01-21T18:42:02.043Z,10.95
2024-01-21T18:45:04.073Z,9.85
2024-01-21T18:48:06.703Z,9.98
2024-01-21T18:51:08.937Z,10.18
2024-01-21T18:54:11.701Z,8.75
2024-01-21T18:57:14.958Z,11.43
2024-01-21T19:00:17.065Z,10.52
2024-01-21T19:03:19.076Z,12.18
2024-01-21T19:06:21.650Z,10.80
2024-01-21T19:09:24.482Z,13.35
2024-01-21T19:12:27.344Z,13.38
2024-01-21T19:15:30.905Z,13.52
2024-01-21T19:18:32.727Z,16.23
2024-01-21T19:21:35.048Z,14.73
2024-01-21T19:24:37.523Z,14.85
2024-01-21T19:27:39.249Z,15.43
2024-01-21T19:30:40.931Z,15.43
2024-01-21T19:33:42.796Z,15.90
2024-01-21T19:36:45.642Z,15.43
2024-01-21T19:39:50.836Z,15.55
2024-01-21T19:42:52.518Z,13.50
2024-01-21T19:45:54.190Z,14.73
2024-01-21T19:48:56.975Z,14.43
2024-01-21T19:52:00.205Z,13.95
2024-01-21T19:55:02.263Z,15.75
2024-01-21T19:58:06.035Z,14.52
2024-01-21T20:01:07.850Z,14.95
2024-01-21T20:04:14.499Z,15.77
2024-01-21T20:07:20.287Z,15.57
2024-01-21T20:10:23.095Z,16.00
2024-01-21T20:13:25.056Z,17.77
2024-01-21T20:16:26.967Z,16.85
2024-01-21T20:19:28.674Z,15.00
2024-01-21T20:22:30.376Z,20.00
2024-01-21T20:25:33.503Z,20.70
2024-01-21T20:28:35.396Z,22.42
2024-01-21T20:31:37.139Z,22.33
2024-01-21T20:34:39.870Z,21.67
2024-01-21T20:37:41.956Z,21.55
2024-01-21T20:40:43.704Z,23.38
2024-01-21T20:43:48.328Z,19.73
2024-01-21T20:46:50.464Z,18.90
2024-01-21T20:49:52.254Z,21.00
2024-01-21T20:52:56.330Z,19.02
2024-01-21T20:55:58.189Z,19.85
2024-01-21T20:59:00.134Z,21.40
2024-01-21T21:02:01.899Z,18.92
2024-01-21T21:05:03.650Z,18.48
2024-01-21T21:08:06.601Z,17.75
2024-01-21T21:11:08.357Z,16.13
2024-01-21T21:14:10.103Z,18.13
2024-01-21T21:17:11.930Z,16.15
2024-01-21T21:20:13.688Z,18.38
2024-01-21T21:23:15.525Z,13.43
2024-01-21T21:26:17.205Z,13.60
2024-01-21T21:29:18.908Z,12.00
2024-01-21T21:32:20.604Z,12.30
2024-01-21T21:35:22.370Z,10.15
2024-01-21T21:38:24.119Z,9.93
2024-01-21T21:41:25.833Z,10.45
2024-01-21T21:44:27.781Z,9.02
2024-01-21T21:47:29.529Z,8.27
2024-01-21T21:50:31.859Z,8.23
2024-01-21T21:53:33.943Z,6.57
2024-01-21T21:56:36.023Z,7.55
2024-01-21T21:59:37.829Z,8.23
2024-01-21T22:02:40.108Z,10.13
2024-01-21T22:05:41.934Z,10.65
2024-01-21T22:08:44.106Z,9.38
2024-01-21T22:11:45.908Z,10.77
2024-01-21T22:14:47.775Z,9.07
2024-01-21T22:17:49.764Z,8.02
2024-01-21T22:20:51.651Z,10.15
2024-01-21T22:23:53.352Z,8.57
2024-01-21T22:26:55.214Z,8.38
2024-01-21T22:29:57.013Z,7.28
2024-01-21T22:32:59.519Z,6.95
2024-01-21T22:36:01.690Z,8.88
2024-01-21T22:39:04.694Z,7.07
2024-01-21T22:42:06.567Z,10.80
2024-01-21T22:45:09.894Z,8.60
2024-01-21T22:48:11.835Z,9.90
2024-01-21T22:51:13.856Z,8.27
2024-01-21T22:54:15.654Z,7.03
2024-01-21T22:57:17.369Z,8.88
2024-01-21T23:00:22.708Z,7.20
2024-01-21T23:03:24.618Z,6.50
2024-01-21T23:06:26.318Z,9.75
2024-01-21T23:09:28.011Z,7.40
2024-01-21T23:12:29.726Z,9.20
2024-01-21T23:15:31.408Z,8.07
2024-01-21T23:18:33.195Z,7.32
2024-01-21T23:21:35.020Z,7.00
2024-01-21T23:24:36.690Z,6.47
2024-01-21T23:27:38.472Z,5.93
2024-01-21T23:30:40.161Z,7.45
2024-01-21T23:33:41.930Z,5.20
2024-01-21T23:36:43.660Z,8.73
2024-01-21T23:39:45.363Z,6.18
2024-01-21T23:42:47.189Z,4.97
2024-01-21T23:45:48.929Z,6.60
2024-01-21T23:48:50.721Z,4.38
2024-01-21T23:51:52.630Z,5.15
2024-01-21T23:54:54.370Z,7.22
2024-01-21T23:57:57.048Z,6.00
